Time;durP1;ratioP1;P1;durP2;ratioP2;P2;SDS_P1;SDS_P2;PMS_P1;PMS_P2;Temp;Humidity;BMP_temperature;BMP_pressure;BME280_temperature;BME280_humidity;BME280_pressure;Samples;Min_cycle;Max_cycle;Signal;HPM_P1;HPM_P2
2021/11/10 00:02:09;;;;;;;10.38;7.45;;;2.90;96.70;;;;;;4955243;28;20023;-74
2021/11/10 00:04:35;;;;;;;13.38;8.00;;;2.90;96.70;;;;;;4969410;28;20466;-73
2021/11/10 00:09:29;;;;;;;10.23;5.90;;;2.90;96.60;;;;;;5012404;28;20108;-69
2021/11/10 00:11:54;;;;;;;7.70;5.22;;;2.80;96.70;;;;;;5012914;28;20044;-69
2021/11/10 00:14:21;;;;;;;9.27;5.20;;;2.70;96.50;;;;;;5010446;28;20029;-69
2021/11/10 00:16:47;;;;;;;9.50;6.10;;;2.70;96.60;;;;;;4994005;28;20454;-69
2021/11/10 00:19:12;;;;;;;10.88;6.20;;;2.70;96.70;;;;;;4991627;28;20065;-69
2021/11/10 00:21:38;;;;;;;10.45;6.72;;;2.70;96.80;;;;;;4991598;28;20073;-69
2021/11/10 00:24:04;;;;;;;11.35;6.15;;;2.70;96.80;;;;;;4990683;28;20714;-69
2021/11/10 00:26:29;;;;;;;10.88;6.93;;;2.70;96.80;;;;;;4991137;28;20559;-69
2021/11/10 00:28:55;;;;;;;7.97;6.03;;;2.70;96.80;;;;;;4991707;28;20049;-69
2021/11/10 00:31:21;;;;;;;10.70;5.85;;;2.70;96.70;;;;;;4991160;28;20446;-69
2021/11/10 00:33:48;;;;;;;11.30;5.90;;;2.70;96.60;;;;;;4990379;28;20092;-69
2021/11/10 00:36:15;;;;;;;10.38;6.22;;;2.60;96.60;;;;;;4991368;28;20030;-69
2021/11/10 00:38:41;;;;;;;9.93;5.43;;;2.50;96.70;;;;;;4990465;28;20113;-70
2021/11/10 00:41:07;;;;;;;7.18;4.63;;;2.50;96.80;;;;;;4959809;28;20027;-70
2021/11/10 00:43:33;;;;;;;8.45;5.60;;;2.50;96.90;;;;;;4973174;28;20157;-70
2021/11/10 00:45:59;;;;;;;6.85;5.35;;;2.50;97.00;;;;;;4991380;28;20066;-68
2021/11/10 00:48:24;;;;;;;8.60;5.43;;;2.60;97.10;;;;;;4990944;28;20176;-68
2021/11/10 00:50:50;;;;;;;11.95;6.07;;;2.60;97.10;;;;;;4991557;28;20023;-68
2021/11/10 00:53:16;;;;;;;10.52;5.45;;;2.60;97.00;;;;;;4990215;28;20030;-70
2021/11/10 00:55:42;;;;;;;11.55;5.90;;;2.70;97.00;;;;;;4990855;28;20387;-68
2021/11/10 00:58:08;;;;;;;11.40;6.32;;;2.60;97.00;;;;;;4991031;28;20105;-70
2021/11/10 01:00:35;;;;;;;11.18;6.05;;;2.70;97.00;;;;;;4991147;28;20035;-68
2021/11/10 01:03:00;;;;;;;13.75;6.40;;;2.70;97.10;;;;;;4989911;28;20113;-68
2021/11/10 01:05:27;;;;;;;9.43;6.10;;;2.70;96.90;;;;;;4990386;28;20374;-70
2021/11/10 01:07:55;;;;;;;14.30;6.25;;;2.60;97.00;;;;;;4990899;28;20050;-68
2021/11/10 01:10:21;;;;;;;10.98;6.18;;;2.70;97.10;;;;;;4999486;28;20072;-70
2021/11/10 01:12:47;;;;;;;11.73;6.78;;;2.70;97.10;;;;;;5009841;28;20616;-68
2021/11/10 01:15:13;;;;;;;8.60;6.35;;;2.70;97.10;;;;;;4996917;28;20069;-69
2021/11/10 01:17:39;;;;;;;11.60;5.88;;;2.70;97.00;;;;;;4991016;28;20030;-70
2021/11/10 01:20:07;;;;;;;10.90;6.43;;;2.60;97.10;;;;;;4990423;28;20387;-68
2021/11/10 01:22:33;;;;;;;9.77;5.82;;;2.70;97.20;;;;;;4990272;28;20424;-68
2021/11/10 01:24:59;;;;;;;10.65;6.47;;;2.60;97.20;;;;;;4990461;28;20513;-68
2021/11/10 01:27:24;;;;;;;12.45;6.15;;;2.70;97.20;;;;;;4990904;28;20038;-70
2021/11/10 01:29:50;;;;;;;16.67;6.40;;;2.70;97.20;;;;;;4990953;28;20034;-68
2021/11/10 01:32:16;;;;;;;12.25;6.25;;;2.60;97.20;;;;;;4990608;28;20125;-68
2021/11/10 01:34:42;;;;;;;9.55;6.25;;;2.60;97.10;;;;;;4989629;28;20034;-70
2021/11/10 01:37:07;;;;;;;12.82;6.82;;;2.60;97.10;;;;;;4990873;28;20098;-71
2021/11/10 01:39:34;;;;;;;11.70;6.15;;;2.60;97.10;;;;;;4981267;28;20027;-68
2021/11/10 01:42:04;;;;;;;10.82;6.32;;;2.60;97.20;;;;;;4990640;28;20018;-68
2021/11/10 01:44:33;;;;;;;14.13;7.50;;;2.50;97.10;;;;;;4989372;28;20033;-70
2021/11/10 01:47:02;;;;;;;12.10;6.65;;;2.50;97.00;;;;;;4990088;28;20069;-70
2021/11/10 01:49:28;;;;;;;11.30;6.97;;;2.40;97.10;;;;;;4990122;28;20518;-71
2021/11/10 01:51:56;;;;;;;9.13;6.30;;;2.30;97.20;;;;;;4990651;28;20018;-70
2021/11/10 01:54:24;;;;;;;9.98;6.20;;;2.30;97.10;;;;;;4989455;28;20046;-70
2021/11/10 01:56:51;;;;;;;11.50;7.10;;;2.30;97.20;;;;;;4990643;28;20081;-70
2021/11/10 01:59:33;;;;;;;17.23;6.20;;;2.20;97.20;;;;;;4990257;28;20097;-70
2021/11/10 02:02:00;;;;;;;14.15;6.28;;;2.20;97.30;;;;;;4990873;28;20433;-70
2021/11/10 02:04:28;;;;;;;11.73;6.53;;;2.20;97.30;;;;;;4989114;28;20037;-71
2021/11/10 02:06:53;;;;;;;9.57;5.95;;;2.20;97.30;;;;;;4989627;28;20042;-70
2021/11/10 02:09:24;;;;;;;11.35;6.00;;;2.10;97.20;;;;;;4993162;28;20030;-70
2021/11/10 02:11:52;;;;;;;10.73;6.65;;;2.10;97.40;;;;;;5001852;28;20022;-70
2021/11/10 02:14:20;;;;;;;11.68;6.53;;;2.10;97.40;;;;;;4977503;28;20110;-70
2021/11/10 02:16:46;;;;;;;10.32;6.03;;;2.20;97.40;;;;;;4990295;28;20050;-70
2021/11/10 02:19:14;;;;;;;9.20;6.30;;;2.20;97.50;;;;;;4994245;28;20037;-70
2021/11/10 02:21:50;;;;;;;10.77;6.20;;;2.20;97.40;;;;;;4993530;28;20030;-70
2021/11/10 02:24:17;;;;;;;11.43;6.55;;;2.10;97.40;;;;;;4993137;28;20022;-70
2021/11/10 02:26:44;;;;;;;11.38;5.65;;;2.10;97.40;;;;;;4993578;28;20200;-70
2021/11/10 02:29:12;;;;;;;10.43;5.40;;;2.10;97.50;;;;;;4994163;28;20033;-70
2021/11/10 02:31:38;;;;;;;9.35;5.90;;;2.10;97.50;;;;;;4993850;28;20479;-70
2021/11/10 02:34:04;;;;;;;11.05;5.75;;;2.20;97.50;;;;;;4992551;28;20038;-70
2021/11/10 02:36:31;;;;;;;10.93;6.22;;;2.20;97.40;;;;;;4994012;28;20447;-70
2021/11/10 02:39:00;;;;;;;8.98;5.97;;;2.10;97.30;;;;;;4993289;28;20037;-70
2021/11/10 02:41:27;;;;;;;9.13;5.50;;;2.10;97.30;;;;;;4984707;28;20114;-70
2021/11/10 02:43:53;;;;;;;13.65;6.78;;;2.10;97.30;;;;;;4981521;28;20030;-70
2021/11/10 02:46:19;;;;;;;11.70;6.30;;;2.00;97.40;;;;;;4993601;28;20032;-70
2021/11/10 02:48:45;;;;;;;10.65;6.20;;;1.90;97.40;;;;;;4992832;28;20062;-70
2021/11/10 02:51:10;;;;;;;7.97;5.78;;;1.90;97.50;;;;;;4993606;28;20054;-70
2021/11/10 02:53:36;;;;;;;9.23;5.90;;;1.90;97.60;;;;;;4992479;28;20064;-70
2021/11/10 02:56:02;;;;;;;13.25;6.07;;;1.90;97.60;;;;;;4992563;28;20113;-70
2021/11/10 02:58:32;;;;;;;9.77;6.00;;;1.90;97.60;;;;;;4993170;28;20026;-70
2021/11/10 03:00:57;;;;;;;12.20;6.13;;;1.90;97.50;;;;;;4993359;28;20034;-70
2021/11/10 03:03:23;;;;;;;9.57;5.93;;;1.80;97.50;;;;;;4992324;28;20521;-70
2021/11/10 03:05:49;;;;;;;8.00;5.82;;;1.80;97.40;;;;;;4992296;28;20037;-70
2021/11/10 03:08:19;;;;;;;7.45;5.95;;;1.70;97.40;;;;;;4990511;28;20077;-70
2021/11/10 03:10:45;;;;;;;10.00;5.93;;;1.70;97.60;;;;;;4996843;28;20068;-70
2021/11/10 03:13:10;;;;;;;10.95;5.90;;;1.80;97.70;;;;;;4996279;28;20399;-70
2021/11/10 03:15:40;;;;;;;10.20;6.07;;;1.80;97.70;;;;;;4992883;28;20495;-70
2021/11/10 03:18:06;;;;;;;8.27;5.53;;;1.70;97.60;;;;;;4988889;28;20030;-70
2021/11/10 03:20:32;;;;;;;8.07;5.30;;;1.70;97.60;;;;;;4992057;28;20057;-70
2021/11/10 03:22:59;;;;;;;13.55;6.25;;;1.70;97.70;;;;;;4991634;28;20038;-70
2021/11/10 03:25:24;;;;;;;10.18;5.50;;;1.80;97.80;;;;;;4992716;28;20042;-70
2021/11/10 03:27:50;;;;;;;10.05;5.28;;;1.80;97.80;;;;;;4992435;28;20030;-70
2021/11/10 03:30:16;;;;;;;7.72;5.70;;;1.90;97.70;;;;;;4993022;28;20056;-70
2021/11/10 03:32:42;;;;;;;9.68;5.45;;;1.90;97.70;;;;;;4991615;28;20025;-70
2021/11/10 03:35:09;;;;;;;9.93;5.93;;;1.90;97.60;;;;;;4991615;28;20050;-70
2021/11/10 03:37:35;;;;;;;9.13;5.50;;;1.80;97.60;;;;;;4992283;28;20026;-70
2021/11/10 03:40:02;;;;;;;10.57;5.68;;;1.80;97.60;;;;;;4992355;28;20081;-71
2021/11/10 03:42:28;;;;;;;11.00;5.30;;;1.80;97.60;;;;;;4992123;28;20026;-70
2021/11/10 03:44:54;;;;;;;10.63;5.70;;;1.70;97.70;;;;;;4991174;28;20093;-70
2021/11/10 03:47:20;;;;;;;8.45;5.50;;;1.70;97.80;;;;;;4991341;28;20029;-70
2021/11/10 03:49:45;;;;;;;12.45;6.25;;;1.80;97.80;;;;;;4992389;28;20030;-70
2021/11/10 03:52:14;;;;;;;12.15;6.57;;;1.80;97.70;;;;;;4992281;28;20084;-70
2021/11/10 03:54:40;;;;;;;11.18;6.35;;;1.80;97.70;;;;;;4991533;28;20037;-70
2021/11/10 03:57:06;;;;;;;10.82;6.53;;;1.70;97.60;;;;;;4991717;28;20041;-70
2021/11/10 03:59:31;;;;;;;9.40;6.60;;;1.70;97.70;;;;;;4992390;28;20027;-70
2021/11/10 04:01:57;;;;;;;14.25;7.30;;;1.70;97.70;;;;;;4991494;28;20030;-70
2021/11/10 04:04:23;;;;;;;10.65;6.85;;;1.70;97.70;;;;;;4991082;28;20399;-70
2021/11/10 04:06:49;;;;;;;11.80;6.75;;;1.70;97.80;;;;;;4991444;28;20023;-68
2021/11/10 04:09:15;;;;;;;12.02;5.93;;;1.60;98.00;;;;;;4987337;28;20382;-70
2021/11/10 04:11:40;;;;;;;9.45;6.40;;;1.70;97.80;;;;;;4999739;28;20037;-70
2021/11/10 04:14:06;;;;;;;12.63;6.50;;;1.60;97.70;;;;;;4990812;28;20027;-70
2021/11/10 04:16:32;;;;;;;12.10;6.85;;;1.60;97.70;;;;;;4991484;28;20428;-71
2021/11/10 04:18:58;;;;;;;10.45;6.55;;;1.50;97.70;;;;;;4991791;28;20023;-70
2021/11/10 04:21:24;;;;;;;10.38;6.43;;;1.50;97.90;;;;;;4991674;28;20046;-70
2021/11/10 04:23:53;;;;;;;9.90;6.35;;;1.50;97.80;;;;;;4990801;28;20474;-70
2021/11/10 04:26:20;;;;;;;13.65;6.47;;;1.50;97.80;;;;;;4991271;28;20042;-70
2021/11/10 04:28:46;;;;;;;9.98;6.10;;;1.50;97.90;;;;;;4991614;28;20121;-70
2021/11/10 04:31:12;;;;;;;9.55;6.55;;;1.40;97.90;;;;;;4990855;28;20118;-70
2021/11/10 04:33:38;;;;;;;11.63;6.85;;;1.50;97.90;;;;;;4990649;28;20019;-70
2021/11/10 04:36:05;;;;;;;9.60;6.30;;;1.40;97.90;;;;;;4991382;28;20077;-70
2021/11/10 04:38:31;;;;;;;11.75;6.55;;;1.40;98.00;;;;;;4991750;28;20023;-69
2021/11/10 04:40:57;;;;;;;8.68;6.38;;;1.40;98.00;;;;;;4990851;28;20073;-69
2021/11/10 04:43:22;;;;;;;11.30;6.60;;;1.40;98.00;;;;;;4990072;28;20493;-69
2021/11/10 04:45:53;;;;;;;13.65;6.60;;;1.40;97.90;;;;;;4990812;28;20022;-69
2021/11/10 04:48:18;;;;;;;15.20;7.18;;;1.40;97.90;;;;;;4991263;28;20037;-70
2021/11/10 04:50:46;;;;;;;11.45;6.63;;;1.30;97.90;;;;;;4991438;28;20018;-69
2021/11/10 04:53:12;;;;;;;14.27;6.78;;;1.30;98.00;;;;;;4990355;28;20383;-69
2021/11/10 04:55:38;;;;;;;10.82;7.03;;;1.40;97.90;;;;;;4991026;28;20032;-70
2021/11/10 04:58:04;;;;;;;10.15;6.90;;;1.30;97.90;;;;;;4990837;28;20125;-69
2021/11/10 05:00:30;;;;;;;10.48;6.25;;;1.30;98.00;;;;;;4982588;28;20041;-70
2021/11/10 05:02:55;;;;;;;16.88;7.78;;;1.30;98.00;;;;;;4988548;28;20109;-69
2021/11/10 05:05:21;;;;;;;10.60;7.07;;;1.30;97.90;;;;;;4990626;28;20027;-70
2021/11/10 05:07:50;;;;;;;12.15;6.85;;;1.30;98.00;;;;;;4973517;28;20046;-70
2021/11/10 05:10:17;;;;;;;18.42;8.00;;;1.30;98.00;;;;;;4991857;28;20032;-69
2021/11/10 05:12:43;;;;;;;11.45;7.00;;;1.30;98.00;;;;;;4989827;28;20384;-70
2021/11/10 05:15:09;;;;;;;12.88;7.63;;;1.30;98.00;;;;;;4991174;28;20030;-69
2021/11/10 05:17:35;;;;;;;14.25;7.45;;;1.40;98.00;;;;;;4991542;28;20491;-70
2021/11/10 05:20:01;;;;;;;13.82;7.28;;;1.40;98.00;;;;;;4974069;28;20038;-70
2021/11/10 05:22:27;;;;;;;12.77;6.82;;;1.30;97.80;;;;;;4991322;28;20027;-70
2021/11/10 05:24:52;;;;;;;9.45;6.40;;;1.30;97.80;;;;;;4990398;28;20030;-70
2021/11/10 05:27:18;;;;;;;12.90;7.30;;;1.20;97.80;;;;;;4991237;28;20511;-69
2021/11/10 05:29:44;;;;;;;14.43;7.22;;;1.20;97.90;;;;;;4991440;28;20041;-69
2021/11/10 05:32:10;;;;;;;13.13;7.25;;;1.20;97.90;;;;;;4991242;28;20031;-69
2021/11/10 05:34:36;;;;;;;7.97;6.22;;;1.10;97.90;;;;;;4990317;28;20026;-69
2021/11/10 05:37:02;;;;;;;11.27;7.10;;;1.10;98.00;;;;;;4991319;28;20046;-70
2021/11/10 05:39:28;;;;;;;13.55;6.85;;;1.10;98.00;;;;;;4990851;28;20105;-70
2021/11/10 05:41:54;;;;;;;11.48;6.75;;;1.00;97.90;;;;;;4991435;28;20065;-69
2021/11/10 05:44:19;;;;;;;12.40;6.80;;;1.00;98.00;;;;;;4976535;28;20018;-70
2021/11/10 05:46:45;;;;;;;12.60;7.05;;;1.00;98.00;;;;;;4990766;28;20027;-69
2021/11/10 05:49:10;;;;;;;10.65;6.38;;;1.00;98.10;;;;;;4994775;28;20384;-68
2021/11/10 05:51:36;;;;;;;10.63;6.93;;;1.00;98.00;;;;;;4994111;28;20088;-68
2021/11/10 05:54:03;;;;;;;14.52;7.32;;;1.00;98.00;;;;;;4993893;28;20027;-68
2021/11/10 05:56:33;;;;;;;12.85;6.88;;;0.90;98.00;;;;;;4994013;28;20553;-70
2021/11/10 05:58:59;;;;;;;11.38;6.38;;;0.90;98.00;;;;;;4994444;28;20030;-70
2021/11/10 06:01:26;;;;;;;15.43;7.35;;;0.90;98.10;;;;;;4994844;28;20030;-70
2021/11/10 06:03:54;;;;;;;15.05;6.40;;;0.90;98.30;;;;;;4994190;28;20026;-70
2021/11/10 06:06:20;;;;;;;13.52;7.03;;;0.90;98.10;;;;;;4994991;28;20038;-70
2021/11/10 06:08:45;;;;;;;11.23;7.05;;;0.90;98.20;;;;;;5027080;23;20038;-85
2021/11/10 06:11:12;;;;;;;11.32;7.32;;;0.90;98.20;;;;;;4986006;28;20018;-86
2021/11/10 06:13:39;;;;;;;18.15;8.07;;;0.90;98.20;;;;;;4982109;28;20030;-85
2021/11/10 06:16:06;;;;;;;12.02;7.30;;;0.90;98.10;;;;;;4980379;28;20022;-86
2021/11/10 06:18:32;;;;;;;17.65;9.00;;;0.90;98.20;;;;;;4978673;28;20034;-85
2021/11/10 06:21:00;;;;;;;20.75;10.45;;;1.00;98.10;;;;;;5011030;28;20084;-86
2021/11/10 06:23:26;;;;;;;25.55;14.25;;;0.90;98.10;;;;;;4979852;28;20080;-86
2021/11/10 06:25:52;;;;;;;22.45;12.02;;;0.90;98.10;;;;;;4979028;28;20105;-87
2021/11/10 06:28:18;;;;;;;18.98;9.90;;;0.90;98.10;;;;;;4986285;28;20486;-86
2021/11/10 06:30:44;;;;;;;19.95;10.30;;;0.90;98.20;;;;;;4998686;28;20547;-85
2021/11/10 06:33:09;;;;;;;14.10;9.23;;;0.90;98.20;;;;;;4982490;28;20126;-86
2021/11/10 06:35:35;;;;;;;18.88;10.90;;;0.90;98.20;;;;;;4997008;28;20037;-85
2021/11/10 06:38:02;;;;;;;24.63;14.73;;;0.90;98.20;;;;;;4980467;28;20042;-84
2021/11/10 06:40:27;;;;;;;19.63;11.80;;;0.90;98.20;;;;;;4978331;28;20057;-85
2021/11/10 06:42:53;;;;;;;17.98;10.10;;;0.90;98.20;;;;;;4994733;28;20770;-86
2021/11/10 06:45:19;;;;;;;13.82;8.32;;;0.90;98.20;;;;;;4997135;28;20033;-83
2021/11/10 06:47:45;;;;;;;14.70;8.68;;;0.90;98.20;;;;;;4978777;28;20077;-84
2021/11/10 06:50:11;;;;;;;15.05;7.82;;;0.90;98.20;;;;;;4979068;28;20438;-84
2021/11/10 06:52:37;;;;;;;13.85;7.68;;;0.90;98.30;;;;;;4976711;28;20027;-84
2021/11/10 06:55:04;;;;;;;13.70;8.27;;;0.90;98.30;;;;;;4978606;28;20023;-84
2021/11/10 06:57:31;;;;;;;13.25;7.78;;;0.90;98.40;;;;;;4995444;28;20088;-84
2021/11/10 06:59:57;;;;;;;10.95;7.80;;;0.90;98.30;;;;;;4978668;28;20026;-85
2021/11/10 07:02:22;;;;;;;14.40;7.45;;;1.00;98.30;;;;;;4978218;28;20483;-85
2021/11/10 07:04:48;;;;;;;16.50;7.43;;;1.00;98.30;;;;;;4978187;28;20030;-84
2021/11/10 07:07:14;;;;;;;17.27;7.40;;;1.10;98.40;;;;;;4995900;28;20500;-84
2021/11/10 07:09:39;;;;;;;12.90;7.97;;;1.10;98.40;;;;;;4982930;28;20368;-84
2021/11/10 07:12:06;;;;;;;14.43;6.75;;;1.20;98.40;;;;;;4978163;28;20049;-83
2021/11/10 07:14:31;;;;;;;12.85;6.32;;;1.20;98.30;;;;;;4977252;28;20504;-84
2021/11/10 07:16:57;;;;;;;10.80;6.47;;;1.40;98.40;;;;;;4977949;28;20034;-85
2021/11/10 07:19:23;;;;;;;12.38;6.57;;;1.40;98.40;;;;;;4978261;28;20034;-85
2021/11/10 07:21:48;;;;;;;12.50;6.25;;;1.50;98.40;;;;;;4977963;28;20026;-84
2021/11/10 07:24:14;;;;;;;11.18;6.10;;;1.60;98.40;;;;;;4978149;28;20026;-88
2021/11/10 07:26:40;;;;;;;12.25;6.55;;;1.70;98.40;;;;;;4997433;28;20018;-84
2021/11/10 07:29:06;;;;;;;16.88;6.45;;;1.80;98.40;;;;;;5000135;28;20058;-85
2021/11/10 07:31:33;;;;;;;13.43;6.55;;;1.80;98.50;;;;;;4982294;28;20034;-85
2021/11/10 07:33:59;;;;;;;15.18;5.80;;;1.90;98.50;;;;;;4991779;28;20065;-84
2021/11/10 07:36:26;;;;;;;9.88;6.35;;;2.00;98.40;;;;;;4970412;28;20030;-85
2021/11/10 07:38:53;;;;;;;10.68;5.85;;;2.00;98.50;;;;;;4976712;28;20018;-84
2021/11/10 07:41:20;;;;;;;8.70;5.80;;;2.10;98.60;;;;;;4993955;28;20054;-84
2021/11/10 07:43:47;;;;;;;9.18;5.57;;;2.20;98.60;;;;;;4991660;28;20394;-85
2021/11/10 07:46:18;;;;;;;10.63;5.57;;;2.30;98.70;;;;;;4992498;28;20025;-84
2021/11/10 07:48:46;;;;;;;9.55;5.93;;;2.40;98.50;;;;;;4983009;28;20030;-85
2021/11/10 07:51:12;;;;;;;12.70;6.60;;;2.50;98.70;;;;;;4990441;28;20022;-85
2021/11/10 07:53:38;;;;;;;10.73;5.93;;;2.60;98.70;;;;;;4974731;28;20029;-85
2021/11/10 07:56:04;;;;;;;14.35;6.75;;;2.70;98.60;;;;;;4974857;28;20403;-85
2021/11/10 07:58:30;;;;;;;11.35;6.35;;;2.70;98.60;;;;;;4977056;28;20513;-85
2021/11/10 08:00:56;;;;;;;9.88;6.22;;;2.80;98.60;;;;;;4985715;28;20038;-85
2021/11/10 08:03:22;;;;;;;8.95;6.30;;;2.90;98.50;;;;;;4992349;28;20098;-85
2021/11/10 08:05:47;;;;;;;11.55;6.22;;;3.00;98.50;;;;;;4994983;28;20026;-85
2021/11/10 08:08:13;;;;;;;12.18;6.97;;;3.10;98.40;;;;;;4994717;28;20514;-84
2021/11/10 08:10:39;;;;;;;10.55;6.68;;;3.20;98.40;;;;;;4975902;28;20034;-84
2021/11/10 08:13:04;;;;;;;9.77;7.15;;;3.20;98.30;;;;;;4977869;28;20046;-85
2021/11/10 08:15:30;;;;;;;11.25;7.72;;;3.30;98.30;;;;;;4995171;28;20545;-85
2021/11/10 08:17:57;;;;;;;15.63;8.77;;;3.40;98.30;;;;;;4963030;28;20628;-84
2021/11/10 08:20:23;;;;;;;15.60;8.82;;;3.40;98.20;;;;;;4965383;28;20163;-85
2021/11/10 08:22:49;;;;;;;15.18;8.35;;;3.50;98.20;;;;;;4976250;28;20088;-85
2021/11/10 08:25:17;;;;;;;13.95;8.65;;;3.60;98.20;;;;;;4975756;28;20057;-85
2021/11/10 08:27:43;;;;;;;12.70;7.75;;;3.60;98.10;;;;;;4993537;28;20026;-84
2021/11/10 08:30:13;;;;;;;17.25;8.68;;;3.70;98.00;;;;;;4977029;28;20026;-85
2021/11/10 08:32:39;;;;;;;17.45;9.00;;;3.70;98.00;;;;;;4973016;28;20030;-85
2021/11/10 08:35:06;;;;;;;12.32;8.85;;;3.60;97.90;;;;;;4981286;28;20026;-85
2021/11/10 08:37:31;;;;;;;14.75;9.77;;;3.70;97.90;;;;;;4990781;28;20144;-85
2021/11/10 08:39:58;;;;;;;16.33;9.15;;;3.70;97.90;;;;;;4975963;28;20049;-84
2021/11/10 08:42:31;;;;;;;16.75;9.52;;;3.60;97.60;;;;;;4976090;28;20033;-84
2021/11/10 08:44:59;;;;;;;15.00;8.93;;;3.70;98.00;;;;;;4975251;28;20026;-85
2021/11/10 08:47:24;;;;;;;14.57;9.15;;;3.80;98.20;;;;;;4976898;28;20029;-84
2021/11/10 08:49:50;;;;;;;17.10;9.20;;;3.90;98.10;;;;;;4994182;28;20023;-84
2021/11/10 08:52:18;;;;;;;18.55;9.43;;;3.90;98.10;;;;;;4976309;28;20110;-85
2021/11/10 08:54:43;;;;;;;14.40;9.27;;;4.10;98.70;;;;;;4974927;28;20045;-85
2021/11/10 08:57:09;;;;;;;15.65;9.48;;;4.50;98.70;;;;;;4975676;28;20490;-85
2021/11/10 08:59:35;;;;;;;18.42;10.60;;;4.70;98.40;;;;;;4976650;28;20034;-85
2021/11/10 09:02:02;;;;;;;18.48;11.38;;;4.80;98.10;;;;;;4975573;28;20113;-84
2021/11/10 09:04:27;;;;;;;18.20;10.43;;;4.70;97.90;;;;;;4975121;28;20068;-85
2021/11/10 09:06:53;;;;;;;16.60;9.77;;;4.70;97.80;;;;;;4975730;28;20458;-85
2021/11/10 09:09:19;;;;;;;16.90;11.18;;;4.70;97.90;;;;;;4976395;28;20125;-85
2021/11/10 09:11:45;;;;;;;18.23;11.93;;;4.70;98.10;;;;;;4975643;28;20135;-86
2021/11/10 09:14:12;;;;;;;16.85;10.73;;;4.70;98.20;;;;;;4975668;28;20030;-85
2021/11/10 09:16:37;;;;;;;15.63;11.50;;;4.80;98.30;;;;;;4964373;28;20494;-85
2021/11/10 09:19:04;;;;;;;18.85;10.18;;;4.90;98.30;;;;;;4956350;28;20029;-85
2021/11/10 09:21:30;;;;;;;15.95;10.43;;;5.10;98.40;;;;;;4974456;28;20030;-85
2021/11/10 09:23:56;;;;;;;16.77;9.95;;;5.10;98.30;;;;;;4955501;28;20113;-85
2021/11/10 09:26:22;;;;;;;15.07;10.13;;;5.20;98.10;;;;;;4982578;28;20104;-84
2021/11/10 09:28:47;;;;;;;20.95;11.27;;;5.20;98.10;;;;;;4975216;28;20125;-85
2021/11/10 09:31:13;;;;;;;17.05;10.13;;;5.20;98.00;;;;;;4967624;28;20038;-84
2021/11/10 09:33:43;;;;;;;18.95;10.52;;;5.20;98.00;;;;;;4956484;28;20407;-85
2021/11/10 09:36:09;;;;;;;18.90;10.95;;;5.30;98.10;;;;;;4969593;28;20026;-85
2021/11/10 09:38:35;;;;;;;19.20;10.48;;;5.30;98.00;;;;;;5019935;28;20034;-83
2021/11/10 09:41:03;;;;;;;19.80;10.85;;;5.40;98.00;;;;;;4987911;28;20034;-84
2021/11/10 09:43:32;;;;;;;17.25;11.57;;;5.40;98.00;;;;;;4974172;28;20027;-85
2021/11/10 09:45:59;;;;;;;21.67;10.02;;;5.50;98.00;;;;;;4973307;28;20030;-84
2021/11/10 09:48:25;;;;;;;19.58;10.93;;;5.50;98.00;;;;;;4960936;28;20110;-85
2021/11/10 09:50:52;;;;;;;26.73;11.52;;;5.60;98.20;;;;;;4975771;28;20050;-85
2021/11/10 09:53:19;;;;;;;24.63;11.32;;;5.70;98.10;;;;;;4972927;28;20026;-84
2021/11/10 09:55:44;;;;;;;19.42;10.13;;;5.80;98.10;;;;;;4992876;28;20022;-86
2021/11/10 09:58:10;;;;;;;20.75;10.77;;;5.80;98.00;;;;;;4975260;28;20026;-85
2021/11/10 10:00:43;;;;;;;19.95;10.32;;;5.90;98.00;;;;;;4993347;28;20034;-85
2021/11/10 10:03:09;;;;;;;;;;;5.90;98.10;;;;;;4973008;28;20041;-85
2021/11/10 10:05:36;;;;;;;19.42;10.32;;;6.00;98.10;;;;;;4974113;28;20377;-84
2021/11/10 10:08:04;;;;;;;22.75;11.02;;;6.00;98.00;;;;;;4957059;28;20041;-84
2021/11/10 10:10:29;;;;;;;20.45;11.25;;;6.00;97.90;;;;;;4975694;28;20048;-85
2021/11/10 10:12:58;;;;;;;22.23;11.20;;;6.10;98.00;;;;;;4974531;28;20113;-85
2021/11/10 10:15:26;;;;;;;23.55;11.48;;;6.10;97.90;;;;;;4975655;28;20058;-85
2021/11/10 10:17:59;;;;;;;22.83;11.23;;;6.10;97.90;;;;;;4974746;28;20069;-85
2021/11/10 10:20:36;;;;;;;22.88;12.43;;;6.20;97.90;;;;;;4974322;28;20121;-85
2021/11/10 10:23:27;;;;;;;25.17;11.60;;;6.20;98.00;;;;;;4968483;28;20026;-85
2021/11/10 10:26:01;;;;;;;22.15;12.23;;;6.30;97.90;;;;;;4971424;28;20399;-84
2021/11/10 10:28:30;;;;;;;21.80;11.65;;;6.40;97.90;;;;;;4975797;28;20027;-85
2021/11/10 10:31:04;;;;;;;21.00;11.60;;;6.40;97.90;;;;;;4985825;28;20019;-85
2021/11/10 10:33:34;;;;;;;20.35;12.20;;;6.40;97.80;;;;;;4995326;28;20483;-85
2021/11/10 10:36:07;;;;;;;24.30;13.00;;;6.40;97.80;;;;;;4986237;28;20025;-85
2021/11/10 10:38:38;;;;;;;16.15;11.07;;;6.50;97.80;;;;;;4976179;28;20438;-85
2021/11/10 10:41:06;;;;;;;18.50;10.52;;;6.50;97.90;;;;;;4978489;28;20093;-86
2021/11/10 10:43:40;;;;;;;17.48;10.52;;;6.50;97.90;;;;;;4977493;28;20038;-85
2021/11/10 10:46:06;;;;;;;15.48;9.50;;;6.60;97.90;;;;;;4978789;28;20130;-85
2021/11/10 10:48:32;;;;;;;15.68;10.48;;;6.60;97.90;;;;;;4973009;28;20027;-85
2021/11/10 10:51:07;;;;;;;17.73;10.13;;;6.70;97.90;;;;;;4960002;28;20041;-84
2021/11/10 10:53:42;;;;;;;15.02;10.27;;;6.70;97.90;;;;;;4958679;28;20036;-85
2021/11/10 10:56:34;;;;;;;18.70;10.57;;;6.70;97.90;;;;;;4964392;28;20034;-85
2021/11/10 10:59:18;;;;;;;19.45;10.63;;;6.70;97.90;;;;;;4989939;28;20077;-85
2021/11/10 11:01:50;;;;;;;17.33;11.23;;;6.70;97.90;;;;;;4982256;28;20050;-84
2021/11/10 11:04:18;;;;;;;18.63;11.57;;;6.70;97.80;;;;;;4964381;28;20018;-85
2021/11/10 11:06:48;;;;;;;17.27;10.98;;;6.70;97.90;;;;;;4972843;28;20038;-84
2021/11/10 11:09:26;;;;;;;17.20;10.77;;;6.70;97.90;;;;;;4980284;28;20026;-85
2021/11/10 11:15:09;;;;;;;19.92;10.93;;;6.80;98.00;;;;;;4922866;29;20028;-85
2021/11/10 11:17:56;;;;;;;19.90;10.57;;;6.80;98.00;;;;;;4962470;28;20066;-85
2021/11/10 11:20:28;;;;;;;20.65;11.90;;;6.90;98.10;;;;;;4970642;28;20042;-85
2021/11/10 11:22:55;;;;;;;18.58;12.00;;;6.90;98.00;;;;;;4959101;28;20282;-85
2021/11/10 11:25:34;;;;;;;19.73;11.95;;;6.90;98.00;;;;;;4994437;28;20038;-84
2021/11/10 11:28:01;;;;;;;21.27;11.95;;;7.00;98.10;;;;;;4978319;28;20034;-85
2021/11/10 11:30:30;;;;;;;24.23;11.63;;;7.00;98.00;;;;;;4977362;28;20080;-85
2021/11/10 11:32:58;;;;;;;20.75;12.18;;;7.00;98.00;;;;;;4994641;28;20057;-86
2021/11/10 11:35:30;;;;;;;20.08;12.00;;;7.00;97.90;;;;;;4994223;28;20098;-86
2021/11/10 11:38:18;;;;;;;20.08;12.30;;;7.00;97.90;;;;;;4995033;28;20474;-85
2021/11/10 11:40:46;;;;;;;20.05;11.43;;;7.10;97.90;;;;;;4976346;28;20088;-85
2021/11/10 11:43:14;;;;;;;23.02;11.90;;;7.10;97.90;;;;;;4987190;28;20137;-85
2021/11/10 11:45:46;;;;;;;18.95;11.45;;;7.20;97.90;;;;;;4983214;28;20027;-85
2021/11/10 11:48:12;;;;;;;21.98;12.30;;;7.20;97.90;;;;;;4977784;28;20057;-85
2021/11/10 11:50:39;;;;;;;21.75;11.80;;;7.30;98.00;;;;;;4977338;28;20038;-85
2021/11/10 11:53:06;;;;;;;399.23;262.48;;;7.30;97.90;;;;;;4993910;28;20023;-85
2021/11/10 11:55:40;;;;;;;34.97;21.55;;;7.40;98.00;;;;;;4980476;28;20042;-85
2021/11/10 11:58:08;;;;;;;22.48;12.68;;;7.50;98.10;;;;;;4977126;28;20024;-85
2021/11/10 12:00:57;;;;;;;26.58;13.15;;;7.60;98.00;;;;;;4977350;28;20121;-86
2021/11/10 12:03:28;;;;;;;20.70;13.15;;;7.70;98.00;;;;;;4975341;28;20392;-85
2021/11/10 12:06:15;;;;;;;23.67;13.25;;;7.80;98.00;;;;;;4970874;28;20022;-85
2021/11/10 12:08:46;;;;;;;22.80;12.77;;;7.90;98.00;;;;;;5022569;23;20037;-70
2021/11/10 12:11:37;;;;;;;27.85;14.00;;;8.00;98.00;;;;;;5011824;28;20109;-70
2021/11/10 12:14:10;;;;;;;26.42;13.68;;;8.20;98.00;;;;;;5011190;28;20034;-72
2021/11/10 12:16:55;;;;;;;21.80;13.82;;;8.30;98.00;;;;;;4996363;28;20026;-70
2021/11/10 12:19:23;;;;;;;22.83;13.73;;;8.50;97.90;;;;;;4973633;28;20041;-71
2021/11/10 12:21:53;;;;;;;24.65;12.63;;;8.70;97.80;;;;;;4980338;28;20368;-71
2021/11/10 12:24:40;;;;;;;24.98;13.32;;;8.90;97.80;;;;;;4987711;28;20030;-70
2021/11/10 12:27:11;;;;;;;25.45;13.77;;;9.10;97.70;;;;;;4992863;28;20467;-72
2021/11/10 12:29:42;;;;;;;26.33;12.85;;;9.30;97.30;;;;;;4975601;28;20042;-71
2021/11/10 12:32:08;;;;;;;20.80;12.90;;;9.40;97.10;;;;;;4987412;28;20109;-69
2021/11/10 12:34:36;;;;;;;22.42;12.60;;;9.50;96.90;;;;;;4986972;28;20527;-68
2021/11/10 12:37:04;;;;;;;18.67;12.70;;;9.50;96.80;;;;;;4992145;28;20086;-71
2021/11/10 12:39:40;;;;;;;18.52;11.98;;;9.60;96.80;;;;;;4982606;28;20081;-70
2021/11/10 12:42:09;;;;;;;23.88;12.77;;;9.80;97.00;;;;;;4988885;28;20023;-71
2021/11/10 12:44:45;;;;;;;21.67;12.68;;;10.00;97.10;;;;;;4990239;28;20471;-71
2021/11/10 12:47:13;;;;;;;19.10;12.32;;;10.20;96.90;;;;;;4991373;28;20034;-70
2021/11/10 12:49:39;;;;;;;20.92;12.90;;;10.30;96.90;;;;;;4992079;28;20119;-69
2021/11/10 12:52:15;;;;;;;20.60;12.02;;;10.40;96.80;;;;;;4990336;28;20048;-69
2021/11/10 12:54:44;;;;;;;18.80;11.95;;;10.60;96.50;;;;;;4973057;28;20037;-71